sensor_id;sensor_type;location;lat;lon;timestamp;temperature;humidity
36374;DHT22;22399;51.346;12.372;2022-07-01T00:00:40;22.90;82.10
36374;DHT22;22399;51.346;12.372;2022-07-01T00:05:47;22.80;82.50
36374;DHT22;22399;51.346;12.372;2022-07-01T00:10:52;22.80;82.80
36374;DHT22;22399;51.346;12.372;2022-07-01T00:15:55;22.80;83.10
36374;DHT22;22399;51.346;12.372;2022-07-01T00:20:58;22.70;83.40
36374;DHT22;22399;51.346;12.372;2022-07-01T00:26:04;22.70;84.00
36374;DHT22;22399;51.346;12.372;2022-07-01T00:31:07;22.70;84.10
36374;DHT22;22399;51.346;12.372;2022-07-01T00:36:10;22.70;84.40
36374;DHT22;22399;51.346;12.372;2022-07-01T00:41:15;22.60;84.80
36374;DHT22;22399;51.346;12.372;2022-07-01T00:46:18;22.60;85.00
36374;DHT22;22399;51.346;12.372;2022-07-01T00:51:24;22.60;85.20
36374;DHT22;22399;51.346;12.372;2022-07-01T00:56:29;22.50;85.40
36374;DHT22;22399;51.346;12.372;2022-07-01T01:01:32;22.40;85.60
36374;DHT22;22399;51.346;12.372;2022-07-01T01:06:36;22.40;86.00
36374;DHT22;22399;51.346;12.372;2022-07-01T01:11:41;22.30;86.30
36374;DHT22;22399;51.346;12.372;2022-07-01T01:16:44;22.30;86.60
36374;DHT22;22399;51.346;12.372;2022-07-01T01:21:49;22.20;86.80
36374;DHT22;22399;51.346;12.372;2022-07-01T01:26:53;22.10;87.20
36374;DHT22;22399;51.346;12.372;2022-07-01T01:31:57;22.00;87.70
36374;DHT22;22399;51.346;12.372;2022-07-01T01:37:02;22.00;88.20
36374;DHT22;22399;51.346;12.372;2022-07-01T01:42:06;21.90;88.50
36374;DHT22;22399;51.346;12.372;2022-07-01T01:47:09;22.00;88.80
36374;DHT22;22399;51.346;12.372;2022-07-01T01:52:14;22.10;88.80
36374;DHT22;22399;51.346;12.372;2022-07-01T01:57:18;22.20;88.60
36374;DHT22;22399;51.346;12.372;2022-07-01T02:02:21;22.20;88.70
36374;DHT22;22399;51.346;12.372;2022-07-01T02:07:26;22.10;88.80
36374;DHT22;22399;51.346;12.372;2022-07-01T02:12:29;22.20;89.30
36374;DHT22;22399;51.346;12.372;2022-07-01T02:17:32;22.20;89.30
36374;DHT22;22399;51.346;12.372;2022-07-01T02:22:37;22.30;89.30
36374;DHT22;22399;51.346;12.372;2022-07-01T02:27:40;22.30;89.30
36374;DHT22;22399;51.346;12.372;2022-07-01T02:32:44;22.30;89.60
36374;DHT22;22399;51.346;12.372;2022-07-01T02:37:48;22.20;89.70
36374;DHT22;22399;51.346;12.372;2022-07-01T02:42:52;22.20;89.90
36374;DHT22;22399;51.346;12.372;2022-07-01T02:47:55;22.20;90.00
36374;DHT22;22399;51.346;12.372;2022-07-01T02:53:00;22.20;90.00
36374;DHT22;22399;51.346;12.372;2022-07-01T02:58:03;22.20;90.10
36374;DHT22;22399;51.346;12.372;2022-07-01T03:03:06;22.30;90.30
36374;DHT22;22399;51.346;12.372;2022-07-01T03:08:11;22.20;90.60
36374;DHT22;22399;51.346;12.372;2022-07-01T03:13:14;22.20;91.00
36374;DHT22;22399;51.346;12.372;2022-07-01T03:18:17;22.10;91.10
36374;DHT22;22399;51.346;12.372;2022-07-01T03:23:22;21.90;90.90
36374;DHT22;22399;51.346;12.372;2022-07-01T03:28:25;21.90;90.80
36374;DHT22;22399;51.346;12.372;2022-07-01T03:33:29;21.80;90.80
36374;DHT22;22399;51.346;12.372;2022-07-01T03:38:35;21.70;90.80
36374;DHT22;22399;51.346;12.372;2022-07-01T03:43:38;21.60;90.90
36374;DHT22;22399;51.346;12.372;2022-07-01T03:48:42;21.60;91.10
36374;DHT22;22399;51.346;12.372;2022-07-01T03:53:46;21.60;91.10
36374;DHT22;22399;51.346;12.372;2022-07-01T03:59:18;21.60;91.20
36374;DHT22;22399;51.346;12.372;2022-07-01T04:04:22;21.60;91.40
36374;DHT22;22399;51.346;12.372;2022-07-01T04:09:27;21.70;91.50
36374;DHT22;22399;51.346;12.372;2022-07-01T04:14:31;21.90;91.60
36374;DHT22;22399;51.346;12.372;2022-07-01T04:19:34;22.20;91.40
36374;DHT22;22399;51.346;12.372;2022-07-01T04:24:39;22.30;91.20
36374;DHT22;22399;51.346;12.372;2022-07-01T04:29:43;22.20;91.00
36374;DHT22;22399;51.346;12.372;2022-07-01T04:34:46;22.30;91.10
36374;DHT22;22399;51.346;12.372;2022-07-01T04:39:51;22.70;90.80
36374;DHT22;22399;51.346;12.372;2022-07-01T04:44:54;23.00;90.30
36374;DHT22;22399;51.346;12.372;2022-07-01T04:49:57;23.10;89.60
36374;DHT22;22399;51.346;12.372;2022-07-01T04:55:05;22.60;89.60
36374;DHT22;22399;51.346;12.372;2022-07-01T05:00:10;22.20;90.20
36374;DHT22;22399;51.346;12.372;2022-07-01T05:05:14;22.00;90.70
36374;DHT22;22399;51.346;12.372;2022-07-01T05:10:18;21.90;90.70
36374;DHT22;22399;51.346;12.372;2022-07-01T05:15:22;21.60;90.80
36374;DHT22;22399;51.346;12.372;2022-07-01T05:20:25;21.20;91.30
36374;DHT22;22399;51.346;12.372;2022-07-01T05:25:47;20.00;92.80
36374;DHT22;22399;51.346;12.372;2022-07-01T05:30:51;19.50;97.20
36374;DHT22;22399;51.346;12.372;2022-07-01T05:35:54;19.30;98.90
36374;DHT22;22399;51.346;12.372;2022-07-01T05:40:59;19.30;99.90
36374;DHT22;22399;51.346;12.372;2022-07-01T05:46:02;19.10;99.90
36374;DHT22;22399;51.346;12.372;2022-07-01T05:51:06;18.80;99.90
36374;DHT22;22399;51.346;12.372;2022-07-01T05:56:10;18.80;99.90
36374;DHT22;22399;51.346;12.372;2022-07-01T06:01:14;18.90;99.90
36374;DHT22;22399;51.346;12.372;2022-07-01T06:06:17;19.10;99.90
36374;DHT22;22399;51.346;12.372;2022-07-01T06:11:23;19.30;99.90
36374;DHT22;22399;51.346;12.372;2022-07-01T06:16:27;19.40;99.90
36374;DHT22;22399;51.346;12.372;2022-07-01T06:21:32;19.50;99.90
36374;DHT22;22399;51.346;12.372;2022-07-01T06:26:37;19.70;99.90
36374;DHT22;22399;51.346;12.372;2022-07-01T06:31:40;19.70;99.90
36374;DHT22;22399;51.346;12.372;2022-07-01T06:36:44;19.60;99.90
36374;DHT22;22399;51.346;12.372;2022-07-01T06:41:48;19.50;99.90
36374;DHT22;22399;51.346;12.372;2022-07-01T06:46:51;19.60;99.90
36374;DHT22;22399;51.346;12.372;2022-07-01T06:51:55;19.70;99.90
36374;DHT22;22399;51.346;12.372;2022-07-01T06:57:00;19.50;99.90
36374;DHT22;22399;51.346;12.372;2022-07-01T07:02:03;19.30;99.90
36374;DHT22;22399;51.346;12.372;2022-07-01T07:07:09;19.20;99.90
36374;DHT22;22399;51.346;12.372;2022-07-01T07:12:13;19.20;99.90
36374;DHT22;22399;51.346;12.372;2022-07-01T07:17:17;19.20;99.90
36374;DHT22;22399;51.346;12.372;2022-07-01T07:22:20;19.20;99.90
36374;DHT22;22399;51.346;12.372;2022-07-01T07:27:25;19.40;99.90
36374;DHT22;22399;51.346;12.372;2022-07-01T07:32:35;19.50;99.90
36374;DHT22;22399;51.346;12.372;2022-07-01T07:37:38;19.10;99.90
36374;DHT22;22399;51.346;12.372;2022-07-01T07:42:44;19.00;99.90
36374;DHT22;22399;51.346;12.372;2022-07-01T07:47:48;19.00;99.90
36374;DHT22;22399;51.346;12.372;2022-07-01T07:52:53;18.80;99.90
36374;DHT22;22399;51.346;12.372;2022-07-01T07:57:57;18.80;99.90
36374;DHT22;22399;51.346;12.372;2022-07-01T08:03:00;18.60;99.90
36374;DHT22;22399;51.346;12.372;2022-07-01T08:08:04;18.50;99.90
36374;DHT22;22399;51.346;12.372;2022-07-01T08:13:09;18.10;99.90
36374;DHT22;22399;51.346;12.372;2022-07-01T08:18:12;17.70;99.90
36374;DHT22;22399;51.346;12.372;2022-07-01T08:23:16;17.50;99.90
36374;DHT22;22399;51.346;12.372;2022-07-01T08:28:20;17.30;99.90
36374;DHT22;22399;51.346;12.372;2022-07-01T08:33:23;17.40;99.90
36374;DHT22;22399;51.346;12.372;2022-07-01T08:38:27;17.20;99.90
36374;DHT22;22399;51.346;12.372;2022-07-01T08:43:31;17.30;99.90
36374;DHT22;22399;51.346;12.372;2022-07-01T08:48:35;17.50;99.90
36374;DHT22;22399;51.346;12.372;2022-07-01T08:53:38;17.50;99.90
36374;DHT22;22399;51.346;12.372;2022-07-01T08:58:43;17.40;99.90
36374;DHT22;22399;51.346;12.372;2022-07-01T09:03:48;17.40;99.90
36374;DHT22;22399;51.346;12.372;2022-07-01T09:08:54;17.30;99.90
36374;DHT22;22399;51.346;12.372;2022-07-01T09:14:10;17.40;99.90
36374;DHT22;22399;51.346;12.372;2022-07-01T09:19:14;17.30;99.90
36374;DHT22;22399;51.346;12.372;2022-07-01T09:24:29;17.10;99.90
36374;DHT22;22399;51.346;12.372;2022-07-01T09:29:36;17.00;99.90
36374;DHT22;22399;51.346;12.372;2022-07-01T09:34:41;17.10;99.90
36374;DHT22;22399;51.346;12.372;2022-07-01T09:39:46;17.00;99.90
36374;DHT22;22399;51.346;12.372;2022-07-01T09:44:55;17.00;99.90
36374;DHT22;22399;51.346;12.372;2022-07-01T09:50:05;17.00;99.90
36374;DHT22;22399;51.346;12.372;2022-07-01T09:55:09;17.00;99.90
36374;DHT22;22399;51.346;12.372;2022-07-01T10:00:17;17.00;99.90
36374;DHT22;22399;51.346;12.372;2022-07-01T10:05:22;17.00;99.90
36374;DHT22;22399;51.346;12.372;2022-07-01T10:10:41;16.60;99.90
36374;DHT22;22399;51.346;12.372;2022-07-01T10:15:47;16.50;99.90
36374;DHT22;22399;51.346;12.372;2022-07-01T10:20:52;16.40;99.90
36374;DHT22;22399;51.346;12.372;2022-07-01T10:26:02;16.30;99.90
36374;DHT22;22399;51.346;12.372;2022-07-01T10:31:09;16.40;99.90
36374;DHT22;22399;51.346;12.372;2022-07-01T10:36:26;16.60;99.90
36374;DHT22;22399;51.346;12.372;2022-07-01T10:41:31;16.50;99.90
36374;DHT22;22399;51.346;12.372;2022-07-01T10:46:41;16.40;99.90
36374;DHT22;22399;51.346;12.372;2022-07-01T10:51:48;16.60;99.90
36374;DHT22;22399;51.346;12.372;2022-07-01T10:56:51;16.80;99.90
36374;DHT22;22399;51.346;12.372;2022-07-01T11:01:56;16.90;99.90
36374;DHT22;22399;51.346;12.372;2022-07-01T11:06:59;16.90;99.90
36374;DHT22;22399;51.346;12.372;2022-07-01T11:12:04;17.10;99.90
36374;DHT22;22399;51.346;12.372;2022-07-01T11:17:10;17.30;99.90
36374;DHT22;22399;51.346;12.372;2022-07-01T11:22:17;17.30;99.90
36374;DHT22;22399;51.346;12.372;2022-07-01T11:27:21;17.40;99.90
36374;DHT22;22399;51.346;12.372;2022-07-01T11:32:28;17.20;99.90
36374;DHT22;22399;51.346;12.372;2022-07-01T11:37:32;17.10;99.90
36374;DHT22;22399;51.346;12.372;2022-07-01T11:42:52;17.00;99.90
36374;DHT22;22399;51.346;12.372;2022-07-01T11:47:57;17.00;99.90
36374;DHT22;22399;51.346;12.372;2022-07-01T11:53:00;17.00;99.90
36374;DHT22;22399;51.346;12.372;2022-07-01T11:58:03;17.10;99.90
36374;DHT22;22399;51.346;12.372;2022-07-01T12:03:09;17.10;99.90
36374;DHT22;22399;51.346;12.372;2022-07-01T12:08:13;17.00;99.90
36374;DHT22;22399;51.346;12.372;2022-07-01T12:13:21;16.90;99.90
36374;DHT22;22399;51.346;12.372;2022-07-01T12:18:25;16.80;99.90
36374;DHT22;22399;51.346;12.372;2022-07-01T12:23:29;16.90;99.90
36374;DHT22;22399;51.346;12.372;2022-07-01T12:28:39;17.00;99.90
36374;DHT22;22399;51.346;12.372;2022-07-01T12:33:50;17.10;99.90
36374;DHT22;22399;51.346;12.372;2022-07-01T12:39:04;17.30;99.90
36374;DHT22;22399;51.346;12.372;2022-07-01T12:44:20;17.60;99.90
36374;DHT22;22399;51.346;12.372;2022-07-01T12:49:25;17.70;99.90
36374;DHT22;22399;51.346;12.372;2022-07-01T12:54:30;17.80;99.90
36374;DHT22;22399;51.346;12.372;2022-07-01T12:59:34;18.10;99.90
36374;DHT22;22399;51.346;12.372;2022-07-01T13:04:39;18.00;99.90
36374;DHT22;22399;51.346;12.372;2022-07-01T13:09:43;17.90;99.90
36374;DHT22;22399;51.346;12.372;2022-07-01T13:14:47;17.90;99.90
36374;DHT22;22399;51.346;12.372;2022-07-01T13:19:52;17.90;99.90
36374;DHT22;22399;51.346;12.372;2022-07-01T13:24:56;18.00;99.90
36374;DHT22;22399;51.346;12.372;2022-07-01T13:30:00;18.00;99.90
36374;DHT22;22399;51.346;12.372;2022-07-01T13:35:08;18.00;99.90
36374;DHT22;22399;51.346;12.372;2022-07-01T13:40:11;18.00;99.90
36374;DHT22;22399;51.346;12.372;2022-07-01T13:45:15;18.10;99.90
36374;DHT22;22399;51.346;12.372;2022-07-01T13:50:20;18.20;99.90
36374;DHT22;22399;51.346;12.372;2022-07-01T13:55:24;18.40;99.90
36374;DHT22;22399;51.346;12.372;2022-07-01T14:00:27;18.60;99.90
36374;DHT22;22399;51.346;12.372;2022-07-01T14:05:32;18.50;99.90
36374;DHT22;22399;51.346;12.372;2022-07-01T14:10:36;18.40;99.90
36374;DHT22;22399;51.346;12.372;2022-07-01T14:15:40;18.50;99.90
36374;DHT22;22399;51.346;12.372;2022-07-01T14:20:45;18.40;99.90
36374;DHT22;22399;51.346;12.372;2022-07-01T14:25:49;18.20;99.90
36374;DHT22;22399;51.346;12.372;2022-07-01T14:30:53;18.30;99.90
36374;DHT22;22399;51.346;12.372;2022-07-01T14:35:58;18.40;99.90
36374;DHT22;22399;51.346;12.372;2022-07-01T14:41:02;18.50;99.90
36374;DHT22;22399;51.346;12.372;2022-07-01T14:46:06;18.60;99.90
36374;DHT22;22399;51.346;12.372;2022-07-01T14:51:14;18.80;99.90
36374;DHT22;22399;51.346;12.372;2022-07-01T14:56:17;18.80;99.90
36374;DHT22;22399;51.346;12.372;2022-07-01T15:01:21;18.60;99.90
36374;DHT22;22399;51.346;12.372;2022-07-01T15:06:26;18.70;99.90
36374;DHT22;22399;51.346;12.372;2022-07-01T15:11:29;19.00;99.90
36374;DHT22;22399;51.346;12.372;2022-07-01T15:16:35;18.90;99.90
36374;DHT22;22399;51.346;12.372;2022-07-01T15:21:40;18.90;99.90
36374;DHT22;22399;51.346;12.372;2022-07-01T15:26:44;18.90;99.90
36374;DHT22;22399;51.346;12.372;2022-07-01T15:31:48;18.80;99.90
36374;DHT22;22399;51.346;12.372;2022-07-01T15:36:54;18.50;99.90
36374;DHT22;22399;51.346;12.372;2022-07-01T15:41:58;18.40;99.90
36374;DHT22;22399;51.346;12.372;2022-07-01T15:47:05;18.40;99.90
36374;DHT22;22399;51.346;12.372;2022-07-01T15:52:24;18.40;99.90
36374;DHT22;22399;51.346;12.372;2022-07-01T15:57:28;18.30;99.90
36374;DHT22;22399;51.346;12.372;2022-07-01T16:02:32;18.20;99.90
36374;DHT22;22399;51.346;12.372;2022-07-01T16:07:38;18.20;99.90
36374;DHT22;22399;51.346;12.372;2022-07-01T16:12:42;18.10;99.90
36374;DHT22;22399;51.346;12.372;2022-07-01T16:17:48;18.10;99.90
36374;DHT22;22399;51.346;12.372;2022-07-01T16:22:54;18.00;99.90
36374;DHT22;22399;51.346;12.372;2022-07-01T16:27:58;18.00;99.90
36374;DHT22;22399;51.346;12.372;2022-07-01T16:33:03;18.00;99.90
36374;DHT22;22399;51.346;12.372;2022-07-01T16:38:08;18.00;99.90
36374;DHT22;22399;51.346;12.372;2022-07-01T16:43:12;17.90;99.90
36374;DHT22;22399;51.346;12.372;2022-07-01T16:48:24;17.80;99.90
36374;DHT22;22399;51.346;12.372;2022-07-01T16:53:45;17.70;99.90
36374;DHT22;22399;51.346;12.372;2022-07-01T16:58:52;17.60;99.90
36374;DHT22;22399;51.346;12.372;2022-07-01T17:03:59;17.60;99.90
36374;DHT22;22399;51.346;12.372;2022-07-01T17:09:06;17.50;99.90
36374;DHT22;22399;51.346;12.372;2022-07-01T17:14:10;17.60;99.90
36374;DHT22;22399;51.346;12.372;2022-07-01T17:19:14;17.60;99.90
36374;DHT22;22399;51.346;12.372;2022-07-01T17:24:20;17.90;99.90
36374;DHT22;22399;51.346;12.372;2022-07-01T17:29:29;18.20;99.90
36374;DHT22;22399;51.346;12.372;2022-07-01T17:34:37;18.70;99.90
36374;DHT22;22399;51.346;12.372;2022-07-01T17:39:43;18.70;99.90
36374;DHT22;22399;51.346;12.372;2022-07-01T17:44:49;18.70;99.90
36374;DHT22;22399;51.346;12.372;2022-07-01T17:49:53;18.70;99.90
36374;DHT22;22399;51.346;12.372;2022-07-01T17:54:58;18.40;99.90
36374;DHT22;22399;51.346;12.372;2022-07-01T18:00:03;18.50;99.90
36374;DHT22;22399;51.346;12.372;2022-07-01T18:05:07;18.30;99.90
36374;DHT22;22399;51.346;12.372;2022-07-01T18:10:12;18.30;99.90
36374;DHT22;22399;51.346;12.372;2022-07-01T18:15:16;18.30;99.90
36374;DHT22;22399;51.346;12.372;2022-07-01T18:20:28;18.40;99.90
36374;DHT22;22399;51.346;12.372;2022-07-01T18:25:40;18.30;99.90
36374;DHT22;22399;51.346;12.372;2022-07-01T18:30:48;18.10;99.90
36374;DHT22;22399;51.346;12.372;2022-07-01T18:35:55;17.90;99.90
36374;DHT22;22399;51.346;12.372;2022-07-01T18:41:05;17.60;99.90
36374;DHT22;22399;51.346;12.372;2022-07-01T18:46:08;17.30;99.90
36374;DHT22;22399;51.346;12.372;2022-07-01T18:51:13;17.10;99.90
36374;DHT22;22399;51.346;12.372;2022-07-01T18:56:18;17.00;99.90
36374;DHT22;22399;51.346;12.372;2022-07-01T19:01:21;16.80;99.90
36374;DHT22;22399;51.346;12.372;2022-07-01T19:06:24;16.80;99.90
36374;DHT22;22399;51.346;12.372;2022-07-01T19:11:29;16.60;99.90
36374;DHT22;22399;51.346;12.372;2022-07-01T19:16:32;16.80;99.90
36374;DHT22;22399;51.346;12.372;2022-07-01T19:21:35;16.90;99.90
36374;DHT22;22399;51.346;12.372;2022-07-01T19:26:40;16.90;99.90
36374;DHT22;22399;51.346;12.372;2022-07-01T19:31:43;16.80;99.90
36374;DHT22;22399;51.346;12.372;2022-07-01T19:36:47;16.60;99.90
36374;DHT22;22399;51.346;12.372;2022-07-01T19:41:52;16.50;99.90
36374;DHT22;22399;51.346;12.372;2022-07-01T19:46:55;16.50;99.90
36374;DHT22;22399;51.346;12.372;2022-07-01T19:51:59;16.40;99.90
36374;DHT22;22399;51.346;12.372;2022-07-01T19:57:04;16.20;99.90
36374;DHT22;22399;51.346;12.372;2022-07-01T20:02:07;16.00;99.90
36374;DHT22;22399;51.346;12.372;2022-07-01T20:07:11;15.90;99.90
36374;DHT22;22399;51.346;12.372;2022-07-01T20:12:15;15.80;99.90
36374;DHT22;22399;51.346;12.372;2022-07-01T20:17:20;15.80;99.90
36374;DHT22;22399;51.346;12.372;2022-07-01T20:22:25;15.70;99.90
36374;DHT22;22399;51.346;12.372;2022-07-01T20:27:29;15.70;99.90
36374;DHT22;22399;51.346;12.372;2022-07-01T20:32:33;15.50;99.90
36374;DHT22;22399;51.346;12.372;2022-07-01T20:37:36;15.50;99.90
36374;DHT22;22399;51.346;12.372;2022-07-01T20:42:41;15.40;99.90
36374;DHT22;22399;51.346;12.372;2022-07-01T20:47:44;15.40;99.90
36374;DHT22;22399;51.346;12.372;2022-07-01T20:52:48;15.40;99.90
36374;DHT22;22399;51.346;12.372;2022-07-01T20:57:52;15.40;99.90
36374;DHT22;22399;51.346;12.372;2022-07-01T21:02:55;15.30;99.90
36374;DHT22;22399;51.346;12.372;2022-07-01T21:07:59;15.30;99.90
36374;DHT22;22399;51.346;12.372;2022-07-01T21:13:04;15.30;99.90
36374;DHT22;22399;51.346;12.372;2022-07-01T21:18:08;15.30;99.90
36374;DHT22;22399;51.346;12.372;2022-07-01T21:23:11;15.40;99.90
36374;DHT22;22399;51.346;12.372;2022-07-01T21:28:17;15.50;99.90
36374;DHT22;22399;51.346;12.372;2022-07-01T21:33:20;15.60;99.90
36374;DHT22;22399;51.346;12.372;2022-07-01T21:38:23;15.70;99.90
36374;DHT22;22399;51.346;12.372;2022-07-01T21:43:28;15.70;99.90
36374;DHT22;22399;51.346;12.372;2022-07-01T21:48:32;15.70;99.90
36374;DHT22;22399;51.346;12.372;2022-07-01T21:53:39;15.70;99.90
36374;DHT22;22399;51.346;12.372;2022-07-01T21:58:44;15.70;99.90
36374;DHT22;22399;51.346;12.372;2022-07-01T22:03:47;15.50;99.90
36374;DHT22;22399;51.346;12.372;2022-07-01T22:08:52;15.40;99.90
36374;DHT22;22399;51.346;12.372;2022-07-01T22:13:59;15.40;99.90
36374;DHT22;22399;51.346;12.372;2022-07-01T22:19:04;15.40;99.90
36374;DHT22;22399;51.346;12.372;2022-07-01T22:24:08;15.40;99.90
36374;DHT22;22399;51.346;12.372;2022-07-01T22:29:16;15.40;99.90
36374;DHT22;22399;51.346;12.372;2022-07-01T22:34:21;15.40;99.90
36374;DHT22;22399;51.346;12.372;2022-07-01T22:39:28;15.30;99.90
36374;DHT22;22399;51.346;12.372;2022-07-01T22:44:34;15.30;99.90
36374;DHT22;22399;51.346;12.372;2022-07-01T22:49:54;15.20;99.90
36374;DHT22;22399;51.346;12.372;2022-07-01T22:55:14;15.20;99.90
36374;DHT22;22399;51.346;12.372;2022-07-01T23:00:21;15.20;99.90
36374;DHT22;22399;51.346;12.372;2022-07-01T23:05:27;15.10;99.90
36374;DHT22;22399;51.346;12.372;2022-07-01T23:10:37;15.10;99.90
36374;DHT22;22399;51.346;12.372;2022-07-01T23:15:45;15.10;99.90
36374;DHT22;22399;51.346;12.372;2022-07-01T23:21:07;15.10;99.90
36374;DHT22;22399;51.346;12.372;2022-07-01T23:26:12;15.00;99.90
36374;DHT22;22399;51.346;12.372;2022-07-01T23:31:18;14.90;99.90
36374;DHT22;22399;51.346;12.372;2022-07-01T23:36:23;14.90;99.90
36374;DHT22;22399;51.346;12.372;2022-07-01T23:41:27;14.80;99.90
36374;DHT22;22399;51.346;12.372;2022-07-01T23:46:32;14.70;99.90
36374;DHT22;22399;51.346;12.372;2022-07-01T23:51:35;14.70;99.90
36374;DHT22;22399;51.346;12.372;2022-07-01T23:56:39;14.60;99.90
